Time;durP1;ratioP1;P1;durP2;ratioP2;P2;SDS_P1;SDS_P2;PMS_P1;PMS_P2;Temp;Humidity;BMP_temperature;BMP_pressure;BME280_temperature;BME280_humidity;BME280_pressure;Samples;Min_cycle;Max_cycle;Signal;HPM_P1;HPM_P2
2021/12/23 00:01:02;;;;;;;9.43;4.47;;;22.50;99.90;;;;;;5099083;28;20066;-76
2021/12/23 00:03:29;;;;;;;7.97;4.20;;;22.60;99.90;;;;;;5101131;28;20024;-75
2021/12/23 00:05:57;;;;;;;6.55;3.05;;;22.70;99.90;;;;;;5100962;28;20031;-77
2021/12/23 00:08:24;;;;;;;7.45;4.45;;;22.70;99.90;;;;;;5103352;28;20023;-78
2021/12/23 00:10:52;;;;;;;6.70;3.45;;;22.80;99.90;;;;;;5103160;28;20039;-76
2021/12/23 00:13:20;;;;;;;7.13;3.95;;;22.90;99.90;;;;;;5100754;28;20115;-77
2021/12/23 00:23:44;;;;;;;7.28;4.00;;;23.90;99.90;;;;;;5097798;28;20047;-77
2021/12/23 00:26:11;;;;;;;5.25;3.95;;;24.00;99.90;;;;;;5099466;28;20031;-79
2021/12/23 00:28:39;;;;;;;2.80;2.47;;;24.20;99.90;;;;;;5099262;28;20446;-76
2021/12/23 00:31:07;;;;;;;5.22;4.05;;;24.40;99.90;;;;;;5104621;28;20020;-76
2021/12/23 00:33:36;;;;;;;4.60;4.18;;;24.60;99.90;;;;;;5106249;28;20566;-76
2021/12/23 00:36:06;;;;;;;6.82;3.60;;;24.80;99.90;;;;;;5104936;28;20119;-76
2021/12/23 00:38:42;;;;;;;5.22;3.60;;;24.90;99.90;;;;;;5107160;28;20783;-75
2021/12/23 00:41:10;;;;;;;5.65;3.60;;;25.10;99.90;;;;;;5108883;28;20458;-77
2021/12/23 00:43:38;;;;;;;6.53;3.88;;;25.40;99.90;;;;;;5096434;28;20406;-76
2021/12/23 00:46:05;;;;;;;5.10;2.90;;;25.60;99.90;;;;;;5108621;27;20052;-76
2021/12/23 00:48:35;;;;;;;6.53;3.05;;;25.80;99.90;;;;;;5110761;28;20043;-76
2021/12/23 00:51:04;;;;;;;3.90;3.00;;;26.00;99.90;;;;;;5101271;27;20034;-74
2021/12/23 00:53:37;;;;;;;5.90;3.25;;;26.30;99.90;;;;;;5104866;28;20034;-77
2021/12/23 00:56:05;;;;;;;5.97;2.95;;;26.50;99.90;;;;;;5102916;27;20081;-78
2021/12/23 00:58:32;;;;;;;4.13;3.55;;;26.50;99.90;;;;;;5099938;28;20039;-78
2021/12/23 01:01:01;;;;;;;4.55;3.28;;;26.70;99.90;;;;;;5109693;27;20416;-78
2021/12/23 01:03:29;;;;;;;4.55;2.83;;;26.60;99.90;;;;;;5105863;28;20031;-77
2021/12/23 01:05:56;;;;;;;5.85;2.92;;;26.50;99.90;;;;;;5103704;28;20409;-76
2021/12/23 01:08:24;;;;;;;3.97;2.55;;;26.60;99.90;;;;;;5105554;28;20028;-78
2021/12/23 01:10:58;;;;;;;4.75;3.17;;;26.70;99.90;;;;;;5105259;28;20060;-78
2021/12/23 01:13:26;;;;;;;5.10;2.88;;;26.70;99.90;;;;;;5104876;28;20424;-77
2021/12/23 01:16:36;;;;;;;6.97;3.03;;;26.80;99.90;;;;;;5102465;27;20446;-76
2021/12/23 01:19:10;;;;;;;4.05;3.40;;;26.80;99.90;;;;;;5104294;28;20137;-77
2021/12/23 01:21:38;;;;;;;5.00;3.05;;;26.90;99.90;;;;;;5101834;28;20038;-77
2021/12/23 01:24:09;;;;;;;4.80;3.22;;;27.10;99.90;;;;;;5103598;28;20039;-76
2021/12/23 01:26:38;;;;;;;4.90;2.85;;;27.50;99.90;;;;;;5101571;27;20022;-76
2021/12/23 01:29:06;;;;;;;4.95;2.72;;;28.10;99.90;;;;;;5105755;28;20074;-78
2021/12/23 01:31:35;;;;;;;4.97;2.70;;;28.30;99.90;;;;;;5110035;28;20115;-78
2021/12/23 01:34:02;;;;;;;4.70;2.70;;;28.50;99.90;;;;;;5105047;28;20032;-80
2021/12/23 01:36:29;;;;;;;3.85;3.05;;;28.60;99.90;;;;;;5104072;28;20469;-79
2021/12/23 01:38:57;;;;;;;3.63;2.65;;;28.50;99.90;;;;;;5103178;28;20035;-78
2021/12/23 01:41:28;;;;;;;3.95;2.70;;;28.50;99.90;;;;;;5102389;28;20027;-78
2021/12/23 01:43:56;;;;;;;4.38;3.95;;;28.80;99.90;;;;;;5098760;28;20181;-79
2021/12/23 01:46:23;;;;;;;6.25;3.90;;;29.00;99.90;;;;;;5084359;28;20068;-79
2021/12/23 01:48:52;;;;;;;5.15;4.60;;;29.30;99.90;;;;;;5105372;28;21817;-77
2021/12/23 01:51:20;;;;;;;5.53;4.63;;;29.30;99.90;;;;;;5101887;28;20032;-76
2021/12/23 01:53:48;;;;;;;7.03;3.75;;;29.00;99.90;;;;;;5105815;28;20055;-78
2021/12/23 01:56:17;;;;;;;4.68;3.78;;;29.00;99.90;;;;;;5103398;28;20032;-77
2021/12/23 01:58:45;;;;;;;5.43;4.93;;;28.50;99.90;;;;;;5105865;28;20043;-77
2021/12/23 02:01:13;;;;;;;7.30;3.55;;;28.20;99.90;;;;;;5103589;28;20481;-77
2021/12/23 02:03:41;;;;;;;5.90;4.38;;;27.70;99.90;;;;;;5108775;28;20070;-78
2021/12/23 02:06:08;;;;;;;5.22;4.68;;;27.40;99.90;;;;;;5084492;28;20035;-80
2021/12/23 02:08:37;;;;;;;6.07;4.78;;;27.10;99.90;;;;;;5111687;28;20397;-78
2021/12/23 02:11:08;;;;;;;6.50;4.13;;;27.10;99.90;;;;;;5101860;27;20089;-77
2021/12/23 02:13:36;;;;;;;7.18;4.93;;;27.20;99.90;;;;;;5103354;28;20028;-77
2021/12/23 02:16:05;;;;;;;7.50;4.63;;;27.30;99.90;;;;;;5108040;28;20500;-77
2021/12/23 02:18:32;;;;;;;6.10;4.63;;;27.50;99.90;;;;;;5110332;28;20036;-75
2021/12/23 02:21:00;;;;;;;6.85;4.68;;;27.60;99.90;;;;;;5109287;28;20020;-78
2021/12/23 02:23:28;;;;;;;6.95;5.00;;;27.70;99.90;;;;;;5106605;28;20023;-75
2021/12/23 02:25:55;;;;;;;6.35;4.90;;;27.70;99.90;;;;;;5101726;28;20019;-74
2021/12/23 02:28:23;;;;;;;6.70;5.10;;;27.80;99.90;;;;;;5099158;27;20016;-76
2021/12/23 02:30:52;;;;;;;6.93;4.93;;;27.80;99.90;;;;;;5101098;28;20065;-77
2021/12/23 02:33:22;;;;;;;6.78;4.78;;;28.10;99.90;;;;;;5100229;28;20023;-76
2021/12/23 02:35:50;;;;;;;7.28;5.15;;;28.30;99.90;;;;;;5106363;28;20027;-77
2021/12/23 02:38:17;;;;;;;5.93;4.88;;;28.60;99.90;;;;;;5107143;28;20042;-75
2021/12/23 02:40:45;;;;;;;6.40;4.70;;;28.60;99.90;;;;;;5104675;28;20027;-76
2021/12/23 02:43:22;;;;;;;8.30;4.53;;;28.80;99.90;;;;;;5101794;27;20053;-75
2021/12/23 02:45:53;;;;;;;8.98;5.60;;;29.10;99.90;;;;;;5099778;27;20028;-75
2021/12/23 02:48:23;;;;;;;6.72;4.75;;;29.20;99.90;;;;;;5108902;28;20414;-77
2021/12/23 02:50:55;;;;;;;6.03;5.20;;;29.30;99.90;;;;;;5103500;28;20474;-78
2021/12/23 02:53:23;;;;;;;5.78;4.57;;;29.30;99.90;;;;;;5101064;28;20089;-76
2021/12/23 02:55:54;;;;;;;7.30;5.18;;;29.20;99.90;;;;;;5101838;27;20953;-79
2021/12/23 02:58:21;;;;;;;6.20;5.25;;;29.50;99.90;;;;;;5100184;28;20142;-76
2021/12/23 03:00:53;;;;;;;7.13;4.25;;;29.80;99.90;;;;;;5107444;28;20843;-77
2021/12/23 03:03:21;;;;;;;4.90;4.15;;;30.20;99.90;;;;;;5104033;28;20080;-75
2021/12/23 03:05:54;;;;;;;5.85;4.25;;;30.40;99.90;;;;;;5107255;28;20043;-77
2021/12/23 03:08:41;;;;;;;5.00;4.38;;;30.90;99.90;;;;;;5102243;28;20035;-77
2021/12/23 03:11:12;;;;;;;5.47;3.80;;;31.10;99.60;;;;;;5108468;28;20027;-77
2021/12/23 03:13:39;;;;;;;6.20;3.42;;;31.00;99.60;;;;;;5106753;28;20031;-76
2021/12/23 03:16:08;;;;;;;9.05;3.88;;;31.00;99.90;;;;;;5101373;27;20489;-76
2021/12/23 03:18:36;;;;;;;5.10;3.80;;;31.30;99.90;;;;;;5112121;28;20398;-78
2021/12/23 03:21:04;;;;;;;6.78;5.13;;;31.60;99.30;;;;;;5103339;28;20027;-73
2021/12/23 03:23:32;;;;;;;6.15;4.00;;;31.70;98.30;;;;;;5106206;28;20080;-75
2021/12/23 03:26:00;;;;;;;5.82;4.03;;;31.60;97.60;;;;;;5108045;28;20069;-77
2021/12/23 03:28:28;;;;;;;6.50;3.70;;;31.20;98.80;;;;;;5107973;28;20550;-77
2021/12/23 03:30:55;;;;;;;5.47;3.83;;;31.20;99.40;;;;;;5103942;28;20043;-75
2021/12/23 03:33:23;;;;;;;5.57;3.35;;;31.50;98.50;;;;;;5107865;28;20030;-77
2021/12/23 03:35:50;;;;;;;5.80;3.45;;;31.80;98.90;;;;;;5104250;28;20024;-76
2021/12/23 03:38:19;;;;;;;7.03;3.70;;;31.80;98.50;;;;;;5100029;27;20050;-75
2021/12/23 03:40:47;;;;;;;6.03;4.53;;;31.50;98.60;;;;;;5072938;28;20736;-74
2021/12/23 03:43:16;;;;;;;5.35;3.13;;;31.40;98.90;;;;;;5073562;28;20024;-74
2021/12/23 03:45:45;;;;;;;6.35;3.40;;;31.30;98.60;;;;;;5086850;28;20039;-75
2021/12/23 03:48:14;;;;;;;6.68;3.58;;;30.90;98.40;;;;;;5088251;28;20024;-74
2021/12/23 03:50:42;;;;;;;7.28;3.42;;;30.70;98.90;;;;;;5089011;28;20042;-76
2021/12/23 03:53:10;;;;;;;10.70;3.78;;;30.30;98.90;;;;;;5088033;28;20027;-75
2021/12/23 03:55:37;;;;;;;4.30;3.15;;;30.00;99.90;;;;;;5083894;28;20410;-75
2021/12/23 03:58:04;;;;;;;5.60;3.50;;;30.50;99.50;;;;;;5084838;28;20036;-75
2021/12/23 04:00:32;;;;;;;6.50;3.75;;;31.20;98.90;;;;;;5088089;28;20097;-74
2021/12/23 04:03:00;;;;;;;3.97;3.17;;;31.90;98.40;;;;;;5088795;28;20518;-74
2021/12/23 04:05:27;;;;;;;5.95;3.25;;;31.80;98.20;;;;;;5086510;28;20142;-74
2021/12/23 04:07:54;;;;;;;8.63;3.28;;;31.60;97.40;;;;;;5083881;28;20023;-73
2021/12/23 04:10:22;;;;;;;5.55;3.85;;;31.10;97.20;;;;;;5075116;28;20067;-76
2021/12/23 04:12:52;;;;;;;6.28;3.10;;;30.70;97.40;;;;;;5083000;28;20083;-76
2021/12/23 04:15:20;;;;;;;7.88;3.85;;;30.10;97.90;;;;;;5086155;28;20107;-75
2021/12/23 04:17:48;;;;;;;5.80;3.60;;;29.50;98.70;;;;;;5089369;28;20122;-76
2021/12/23 04:20:19;;;;;;;12.18;3.45;;;29.10;99.40;;;;;;5088973;28;20039;-75
2021/12/23 04:22:52;;;;;;;6.32;3.88;;;28.80;99.70;;;;;;5081378;28;20031;-75
2021/12/23 04:25:23;;;;;;;5.30;3.47;;;28.60;99.90;;;;;;5087755;28;20021;-73
2021/12/23 04:27:53;;;;;;;5.45;3.75;;;28.60;99.90;;;;;;5083619;28;20024;-76
2021/12/23 04:30:21;;;;;;;5.15;3.50;;;28.60;99.90;;;;;;5086903;28;20012;-74
2021/12/23 04:32:49;;;;;;;4.75;3.05;;;28.60;99.90;;;;;;5083639;28;20029;-76
2021/12/23 04:35:16;;;;;;;5.45;4.00;;;28.60;99.90;;;;;;5080578;28;20051;-73
2021/12/23 04:37:44;;;;;;;7.40;4.68;;;28.60;99.90;;;;;;5089368;28;20094;-73
2021/12/23 04:40:13;;;;;;;4.00;3.20;;;28.50;99.90;;;;;;5097848;28;20063;-73
2021/12/23 04:42:40;;;;;;;6.35;2.72;;;28.60;99.90;;;;;;5098464;28;20074;-73
2021/12/23 04:45:09;;;;;;;8.98;4.53;;;28.60;99.90;;;;;;5101605;28;20488;-73
2021/12/23 04:47:38;;;;;;;9.68;4.00;;;28.60;99.90;;;;;;5095179;28;20401;-75
2021/12/23 04:50:07;;;;;;;7.00;3.33;;;28.50;99.90;;;;;;5099193;28;20039;-74
2021/12/23 04:52:35;;;;;;;7.05;3.55;;;28.40;99.90;;;;;;5096541;28;20031;-74
2021/12/23 04:55:02;;;;;;;4.95;3.33;;;28.30;99.90;;;;;;5101642;28;20169;-74
2021/12/23 04:57:30;;;;;;;5.50;3.97;;;28.20;99.90;;;;;;5100173;28;20040;-73
2021/12/23 04:59:57;;;;;;;4.63;3.42;;;28.10;99.90;;;;;;5101517;28;20232;-74
2021/12/23 05:02:24;;;;;;;7.18;3.78;;;28.10;99.90;;;;;;5099042;28;20482;-75
2021/12/23 05:04:52;;;;;;;6.75;3.70;;;28.00;99.90;;;;;;5100396;28;20402;-74
2021/12/23 05:07:20;;;;;;;4.53;3.75;;;27.90;99.90;;;;;;5104665;28;20062;-74
2021/12/23 05:09:48;;;;;;;9.25;4.70;;;27.80;99.90;;;;;;5103740;28;20027;-73
2021/12/23 05:12:15;;;;;;;6.50;2.92;;;27.80;99.90;;;;;;5098765;28;20047;-73
2021/12/23 05:14:42;;;;;;;6.50;3.53;;;27.80;99.90;;;;;;5098182;28;20044;-74
2021/12/23 05:17:10;;;;;;;6.72;3.80;;;27.70;99.90;;;;;;5104235;28;20035;-73
2021/12/23 05:19:37;;;;;;;6.20;3.95;;;27.70;99.90;;;;;;5107534;28;20023;-74
2021/12/23 05:22:05;;;;;;;4.40;3.00;;;27.70;99.90;;;;;;5096437;28;20390;-73
2021/12/23 05:24:32;;;;;;;5.35;3.60;;;27.70;99.90;;;;;;5100785;28;20015;-76
2021/12/23 05:27:00;;;;;;;6.03;4.05;;;27.60;99.90;;;;;;5111739;28;20031;-73
2021/12/23 05:29:27;;;;;;;5.47;4.25;;;27.50;99.90;;;;;;5112753;28;20063;-74
2021/12/23 05:31:55;;;;;;;9.80;5.22;;;27.40;99.90;;;;;;5105917;28;20031;-74
2021/12/23 05:34:22;;;;;;;6.63;3.58;;;27.30;99.90;;;;;;5103211;28;20038;-75
2021/12/23 05:36:49;;;;;;;6.57;3.75;;;27.20;99.90;;;;;;5101401;28;20036;-73
2021/12/23 05:39:17;;;;;;;10.45;4.35;;;27.00;99.90;;;;;;5100410;28;20141;-74
2021/12/23 05:41:44;;;;;;;7.53;3.58;;;27.00;99.90;;;;;;5101649;27;20061;-74
2021/12/23 05:44:11;;;;;;;9.32;4.55;;;27.00;99.90;;;;;;5104155;27;20023;-77
2021/12/23 05:46:40;;;;;;;11.50;5.28;;;26.80;99.90;;;;;;5108667;28;20027;-79
2021/12/23 05:49:08;;;;;;;8.45;5.72;;;26.60;99.90;;;;;;5112931;28;20857;-78
2021/12/23 05:51:35;;;;;;;11.50;6.03;;;26.30;99.90;;;;;;5104132;28;20443;-75
2021/12/23 05:54:02;;;;;;;11.60;6.28;;;26.00;99.90;;;;;;5101625;28;20028;-77
2021/12/23 05:56:30;;;;;;;10.02;5.50;;;25.80;99.90;;;;;;5108877;27;20128;-78
2021/12/23 05:58:57;;;;;;;9.05;5.90;;;25.50;99.90;;;;;;5109862;27;20035;-75
2021/12/23 06:01:24;;;;;;;9.88;6.00;;;25.20;99.90;;;;;;5108833;28;20070;-80
2021/12/23 06:03:52;;;;;;;9.35;5.45;;;25.00;99.90;;;;;;5102322;28;20032;-78
2021/12/23 06:06:19;;;;;;;13.32;5.60;;;24.90;99.90;;;;;;5109248;28;20450;-77
2021/12/23 06:08:47;;;;;;;11.80;5.45;;;24.80;99.90;;;;;;5098402;28;20034;-79
2021/12/23 06:11:14;;;;;;;8.35;6.07;;;24.80;99.90;;;;;;5106738;28;20036;-78
2021/12/23 06:13:41;;;;;;;7.20;4.78;;;24.90;99.90;;;;;;5113020;28;20039;-79
2021/12/23 06:16:09;;;;;;;9.80;6.40;;;25.10;99.90;;;;;;5108811;28;20065;-78
2021/12/23 06:18:36;;;;;;;8.45;5.05;;;25.20;99.90;;;;;;5111759;28;20419;-78
2021/12/23 06:21:04;;;;;;;16.35;6.53;;;25.20;99.90;;;;;;5095982;28;20548;-78
2021/12/23 06:23:32;;;;;;;11.65;4.90;;;25.20;99.90;;;;;;5098467;28;20032;-78
2021/12/23 06:25:59;;;;;;;7.00;4.40;;;25.30;99.90;;;;;;5107581;28;20019;-77
2021/12/23 06:28:27;;;;;;;8.40;4.93;;;25.30;99.90;;;;;;5111026;28;20386;-78
2021/12/23 06:30:54;;;;;;;9.55;4.75;;;25.40;99.90;;;;;;5110444;28;20052;-77
2021/12/23 06:33:21;;;;;;;7.97;3.97;;;25.50;99.90;;;;;;5110043;28;20122;-78
2021/12/23 06:35:49;;;;;;;11.50;4.93;;;25.60;99.90;;;;;;5102737;28;20035;-79
2021/12/23 06:38:16;;;;;;;9.63;4.50;;;25.60;99.90;;;;;;5110496;28;20031;-80
2021/12/23 06:40:44;;;;;;;11.18;4.22;;;25.60;99.90;;;;;;5086852;28;20086;-79
2021/12/23 06:43:11;;;;;;;8.25;3.15;;;25.70;99.90;;;;;;5108634;28;20302;-75
2021/12/23 06:45:38;;;;;;;6.07;3.20;;;25.80;99.90;;;;;;5085086;28;20054;-78
2021/12/23 06:48:06;;;;;;;10.10;4.07;;;26.00;99.90;;;;;;5103272;28;20482;-78
2021/12/23 06:50:33;;;;;;;7.13;3.20;;;26.00;99.90;;;;;;5105787;27;20072;-78
2021/12/23 06:53:01;;;;;;;12.43;4.15;;;25.90;99.90;;;;;;5107561;28;20598;-75
2021/12/23 06:55:28;;;;;;;6.53;2.90;;;26.00;99.90;;;;;;5101772;28;20026;-79
2021/12/23 06:57:57;;;;;;;6.40;3.85;;;25.90;99.90;;;;;;5104724;28;20069;-81
2021/12/23 07:00:26;;;;;;;7.32;3.97;;;25.90;99.90;;;;;;5102980;27;20669;-80
2021/12/23 07:02:54;;;;;;;12.60;3.58;;;25.80;99.90;;;;;;5105247;28;20032;-79
2021/12/23 07:05:22;;;;;;;8.63;3.00;;;25.80;99.90;;;;;;5107938;28;20066;-78
2021/12/23 07:07:56;;;;;;;5.93;3.53;;;25.70;99.90;;;;;;5108938;28;20039;-79
2021/12/23 07:10:26;;;;;;;7.07;3.28;;;25.70;99.90;;;;;;5105647;28;20473;-78
2021/12/23 07:12:55;;;;;;;12.70;4.63;;;25.60;99.90;;;;;;5105635;27;20035;-78
2021/12/23 07:15:25;;;;;;;7.85;3.40;;;25.60;99.90;;;;;;5113513;28;20052;-78
2021/12/23 07:17:58;;;;;;;11.43;3.72;;;25.60;99.90;;;;;;5110351;28;20052;-78
2021/12/23 07:20:27;;;;;;;10.45;3.35;;;25.50;99.90;;;;;;5106017;27;20051;-77
2021/12/23 07:22:55;;;;;;;9.90;3.08;;;25.50;99.90;;;;;;5103163;27;20031;-77
2021/12/23 07:25:23;;;;;;;5.68;2.97;;;25.50;99.90;;;;;;5106954;27;20414;-80
2021/12/23 07:27:50;;;;;;;8.32;4.45;;;25.50;99.90;;;;;;5110510;28;20474;-79
2021/12/23 07:30:19;;;;;;;4.70;2.83;;;25.50;99.90;;;;;;5099206;28;20038;-79
2021/12/23 07:32:48;;;;;;;7.85;3.90;;;25.50;99.90;;;;;;5111398;28;20028;-80
2021/12/23 07:35:17;;;;;;;4.78;3.17;;;25.50;99.90;;;;;;5106823;27;20067;-80
2021/12/23 07:37:45;;;;;;;6.15;3.22;;;25.60;99.90;;;;;;5104676;28;20036;-79
2021/12/23 07:40:15;;;;;;;4.78;2.95;;;25.60;99.90;;;;;;5107039;28;20039;-80
2021/12/23 07:42:52;;;;;;;3.13;2.65;;;25.60;99.90;;;;;;5111886;28;20023;-80
2021/12/23 07:45:22;;;;;;;7.53;2.70;;;25.60;99.90;;;;;;5110504;28;20106;-78
2021/12/23 07:47:49;;;;;;;5.68;2.55;;;25.60;99.90;;;;;;5111234;28;20031;-80
2021/12/23 07:50:17;;;;;;;5.45;2.20;;;25.50;99.90;;;;;;5111042;28;20050;-80
2021/12/23 07:52:44;;;;;;;7.80;2.67;;;25.50;99.90;;;;;;5109817;28;20421;-81
2021/12/23 07:55:12;;;;;;;5.50;2.40;;;25.50;99.90;;;;;;5111609;28;20023;-80
2021/12/23 07:57:40;;;;;;;7.60;2.50;;;25.40;99.90;;;;;;5110611;28;20491;-79
2021/12/23 08:00:08;;;;;;;4.22;1.83;;;25.30;99.90;;;;;;5100856;28;20028;-79
2021/12/23 08:02:35;;;;;;;6.28;3.30;;;25.20;99.90;;;;;;5106151;28;20672;-79
2021/12/23 08:05:03;;;;;;;5.28;2.67;;;25.20;99.90;;;;;;5105850;28;20047;-78
2021/12/23 08:07:30;;;;;;;6.97;2.50;;;25.20;99.90;;;;;;5107793;28;20024;-79
2021/12/23 08:09:57;;;;;;;6.80;2.80;;;25.20;99.90;;;;;;5107351;28;20019;-79
2021/12/23 08:12:25;;;;;;;4.20;2.25;;;25.20;99.90;;;;;;5109879;28;20028;-80
2021/12/23 08:14:52;;;;;;;3.78;2.58;;;25.20;99.90;;;;;;5109671;28;20024;-80
2021/12/23 08:17:20;;;;;;;6.70;2.38;;;25.10;99.90;;;;;;5110531;28;20036;-80
2021/12/23 08:19:47;;;;;;;7.18;2.67;;;25.10;99.90;;;;;;5092403;28;20378;-80
2021/12/23 08:22:14;;;;;;;6.35;3.20;;;25.10;99.90;;;;;;5109612;28;20028;-79
2021/12/23 08:24:42;;;;;;;8.02;3.28;;;25.10;99.90;;;;;;5110270;28;20030;-79
2021/12/23 08:27:09;;;;;;;7.50;2.40;;;25.00;99.90;;;;;;5104058;28;20486;-79
2021/12/23 08:29:37;;;;;;;4.38;2.17;;;25.00;99.90;;;;;;5109678;28;20093;-79
2021/12/23 08:32:05;;;;;;;6.10;2.03;;;25.00;99.90;;;;;;5110669;28;20390;-79
2021/12/23 08:34:36;;;;;;;7.90;3.20;;;25.00;99.90;;;;;;5109163;28;20047;-79
2021/12/23 08:37:06;;;;;;;5.90;2.45;;;25.00;99.90;;;;;;5110554;28;20036;-79
2021/12/23 08:39:34;;;;;;;3.72;2.53;;;24.90;99.90;;;;;;5109785;28;20040;-79
2021/12/23 08:42:01;;;;;;;7.25;2.10;;;24.90;99.90;;;;;;5107256;28;20027;-79
2021/12/23 08:44:29;;;;;;;9.52;2.65;;;24.80;99.90;;;;;;5098215;28;20857;-78
2021/12/23 08:46:56;;;;;;;6.93;3.80;;;24.90;99.90;;;;;;5110076;28;20489;-80
2021/12/23 08:49:23;;;;;;;8.13;2.25;;;24.80;99.90;;;;;;5110292;28;20028;-79
2021/12/23 08:51:51;;;;;;;6.88;3.45;;;24.70;99.90;;;;;;5102516;28;20505;-79
2021/12/23 08:54:21;;;;;;;7.10;3.30;;;24.70;99.90;;;;;;5109253;28;20047;-78
2021/12/23 08:56:48;;;;;;;4.32;2.88;;;24.70;99.90;;;;;;5112542;28;20053;-79
2021/12/23 08:59:17;;;;;;;8.45;3.35;;;24.70;99.90;;;;;;5109651;27;20030;-80
2021/12/23 09:01:45;;;;;;;7.00;2.95;;;24.60;99.90;;;;;;5105371;28;20036;-79
2021/12/23 09:04:13;;;;;;;6.35;3.20;;;24.60;99.90;;;;;;5114259;28;20473;-80
2021/12/23 09:06:41;;;;;;;5.13;2.63;;;24.50;99.90;;;;;;5112705;28;20023;-82
2021/12/23 09:09:08;;;;;;;9.93;3.30;;;24.50;99.90;;;;;;5112478;28;20035;-79
2021/12/23 09:11:35;;;;;;;9.50;3.90;;;24.40;99.90;;;;;;5114057;28;20073;-79
2021/12/23 09:14:03;;;;;;;6.05;2.88;;;24.40;99.90;;;;;;5111741;28;20075;-80
2021/12/23 09:16:31;;;;;;;6.97;3.17;;;24.30;99.90;;;;;;5107490;28;20126;-80
2021/12/23 09:18:58;;;;;;;5.25;3.10;;;24.30;99.90;;;;;;5112160;28;20162;-79
2021/12/23 09:21:26;;;;;;;8.32;2.58;;;24.20;99.90;;;;;;5113116;28;20012;-79
2021/12/23 09:23:53;;;;;;;6.47;2.95;;;24.20;99.90;;;;;;5113795;28;20028;-79
2021/12/23 09:26:22;;;;;;;6.07;2.80;;;24.20;99.90;;;;;;5112350;28;20056;-79
2021/12/23 09:29:07;;;;;;;8.98;3.60;;;24.20;99.90;;;;;;5112491;28;20444;-78
2021/12/23 09:34:20;;;;;;;10.05;3.90;;;24.10;99.90;;;;;;5112192;28;20168;-79
2021/12/23 09:36:48;;;;;;;10.40;3.88;;;24.00;99.90;;;;;;5112808;28;20039;-79
2021/12/23 09:39:15;;;;;;;9.25;3.80;;;24.00;99.90;;;;;;5112799;28;20086;-79
2021/12/23 09:41:45;;;;;;;6.35;3.75;;;24.00;99.90;;;;;;5112731;28;20020;-77
2021/12/23 09:44:14;;;;;;;6.78;3.95;;;23.90;99.90;;;;;;5110287;28;20030;-79
2021/12/23 09:46:43;;;;;;;7.15;3.92;;;23.90;99.90;;;;;;5103837;28;20036;-79
2021/12/23 09:49:11;;;;;;;11.30;3.97;;;23.90;99.90;;;;;;5092069;28;20103;-77
2021/12/23 09:51:39;;;;;;;6.53;3.38;;;23.90;99.90;;;;;;5110015;28;20038;-79
2021/12/23 09:54:09;;;;;;;7.00;3.72;;;23.80;99.90;;;;;;5113686;28;20028;-79
2021/12/23 09:56:37;;;;;;;7.35;3.38;;;23.80;99.90;;;;;;5112141;28;20027;-78
2021/12/23 09:59:07;;;;;;;4.72;3.30;;;23.80;99.90;;;;;;5112404;28;20028;-79
2021/12/23 10:01:35;;;;;;;8.07;3.33;;;23.70;99.90;;;;;;5111884;28;20026;-79
2021/12/23 10:04:03;;;;;;;14.57;5.13;;;23.70;99.90;;;;;;5112797;28;20076;-79
2021/12/23 10:06:30;;;;;;;6.10;4.53;;;23.60;99.90;;;;;;5111685;28;20466;-78
2021/12/23 10:08:59;;;;;;;5.22;3.70;;;23.60;99.90;;;;;;5097674;28;20462;-79
2021/12/23 10:12:01;;;;;;;8.13;4.82;;;23.60;99.90;;;;;;5112975;28;20019;-79
2021/12/23 10:31:34;;;;;;;7.03;3.88;;;23.40;99.90;;;;;;5099711;28;20102;-78
2021/12/23 10:39:48;;;;;;;5.80;3.45;;;23.40;99.90;;;;;;5107120;28;20130;-79
2021/12/23 10:42:19;;;;;;;12.95;4.95;;;23.40;99.90;;;;;;5104367;28;20027;-78
2021/12/23 10:45:04;;;;;;;12.73;5.18;;;23.30;99.90;;;;;;5103092;28;20104;-78
2021/12/23 10:47:49;;;;;;;8.80;4.53;;;23.30;99.90;;;;;;5097338;28;20270;-78
2021/12/23 10:50:39;;;;;;;10.43;4.55;;;23.30;99.90;;;;;;5100896;28;20542;-79
2021/12/23 10:53:14;;;;;;;10.20;4.25;;;23.30;99.90;;;;;;5104267;27;20024;-78
2021/12/23 10:58:27;;;;;;;9.43;4.35;;;23.30;99.90;;;;;;5101891;28;20120;-80
2021/12/23 11:01:01;;;;;;;10.57;4.32;;;23.40;99.90;;;;;;5098955;27;20031;-80
2021/12/23 11:06:33;;;;;;;12.65;4.07;;;23.50;99.90;;;;;;5100664;27;20119;-78
2021/12/23 11:28:44;;;;;;;9.48;4.13;;;23.80;99.90;;;;;;5103528;28;20035;-75
2021/12/23 11:39:44;;;;;;;5.75;3.08;;;23.70;99.90;;;;;;5094322;28;20027;-77
2021/12/23 11:42:26;;;;;;;13.23;3.92;;;23.70;99.90;;;;;;5108678;28;20367;-76
2021/12/23 11:44:54;;;;;;;12.88;4.93;;;23.70;99.90;;;;;;5110425;28;20058;-78
2021/12/23 11:47:24;;;;;;;10.15;4.20;;;23.70;99.90;;;;;;5108840;28;20059;-77
2021/12/23 11:49:51;;;;;;;9.20;3.33;;;23.70;99.90;;;;;;5099015;28;20032;-78
2021/12/23 11:52:19;;;;;;;7.55;4.53;;;23.70;99.90;;;;;;5103307;28;20070;-77
2021/12/23 11:54:47;;;;;;;6.75;3.75;;;23.70;99.90;;;;;;5110118;28;20031;-77
2021/12/23 11:57:16;;;;;;;10.00;4.45;;;23.70;99.90;;;;;;5105631;28;20039;-76
2021/12/23 11:59:55;;;;;;;9.98;4.82;;;23.70;99.90;;;;;;5102849;28;20525;-76
2021/12/23 12:02:24;;;;;;;11.93;4.85;;;23.60;99.90;;;;;;5106979;28;20085;-77
2021/12/23 12:05:01;;;;;;;10.70;4.22;;;23.60;99.90;;;;;;5108634;28;20027;-77
2021/12/23 12:07:28;;;;;;;8.07;4.43;;;23.60;99.90;;;;;;5104316;28;20087;-77
2021/12/23 12:10:05;;;;;;;11.27;4.43;;;23.60;99.90;;;;;;5107891;28;20038;-78
2021/12/23 12:12:34;;;;;;;10.25;4.68;;;23.60;99.90;;;;;;5104754;28;20032;-78
2021/12/23 12:15:03;;;;;;;8.32;4.40;;;23.60;99.90;;;;;;5103385;28;20035;-76
2021/12/23 12:17:33;;;;;;;7.40;4.25;;;23.60;99.90;;;;;;5108053;28;20169;-78
2021/12/23 12:20:35;;;;;;;9.95;4.80;;;23.60;99.90;;;;;;5107314;28;20048;-77
2021/12/23 12:23:07;;;;;;;8.77;5.63;;;23.60;99.90;;;;;;5106919;28;20103;-79
2021/12/23 12:25:44;;;;;;;7.30;4.13;;;23.60;99.90;;;;;;5104006;28;20084;-78
2021/12/23 12:28:22;;;;;;;8.88;4.28;;;23.60;99.90;;;;;;5100246;28;20070;-78
2021/12/23 12:31:19;;;;;;;6.60;4.63;;;23.50;99.90;;;;;;5099185;28;20541;-77
2021/12/23 12:34:06;;;;;;;8.18;4.45;;;23.40;99.90;;;;;;5100714;28;20040;-79
2021/12/23 12:36:54;;;;;;;8.63;4.55;;;23.40;99.90;;;;;;5107132;28;20028;-77
2021/12/23 12:39:24;;;;;;;6.05;4.13;;;23.30;99.90;;;;;;5110252;28;20089;-81
2021/12/23 12:42:02;;;;;;;7.05;4.28;;;23.30;99.90;;;;;;5110331;28;20027;-79
2021/12/23 12:44:59;;;;;;;9.93;4.97;;;23.30;99.90;;;;;;5107862;28;20043;-79
2021/12/23 12:47:31;;;;;;;9.35;4.43;;;23.30;99.90;;;;;;5111701;28;21083;-77
2021/12/23 12:50:13;;;;;;;7.25;4.93;;;23.30;99.90;;;;;;5113317;28;20063;-79
2021/12/23 12:52:44;;;;;;;8.35;4.55;;;23.30;99.90;;;;;;5113837;28;20478;-79
2021/12/23 12:55:13;;;;;;;11.43;6.55;;;23.30;99.90;;;;;;5113753;28;20043;-79
2021/12/23 12:58:04;;;;;;;12.35;4.93;;;23.40;99.90;;;;;;5112133;28;20047;-80
2021/12/23 13:00:42;;;;;;;8.68;4.53;;;23.40;99.90;;;;;;5107232;28;20250;-79
2021/12/23 13:03:17;;;;;;;13.02;5.00;;;23.40;99.90;;;;;;5109114;28;20067;-78
2021/12/23 13:05:52;;;;;;;9.50;4.70;;;23.50;99.90;;;;;;5100801;28;20024;-80
2021/12/23 13:08:34;;;;;;;9.60;5.97;;;23.50;99.90;;;;;;5111852;28;20112;-80
2021/12/23 13:11:08;;;;;;;8.35;4.38;;;23.50;99.90;;;;;;5110430;28;20156;-79
2021/12/23 13:13:45;;;;;;;7.88;4.30;;;23.50;99.90;;;;;;5106780;27;20019;-83
2021/12/23 13:16:15;;;;;;;8.50;4.05;;;23.50;99.90;;;;;;5103872;28;20028;-81
2021/12/23 13:18:42;;;;;;;10.05;4.60;;;23.40;99.90;;;;;;5109161;28;20577;-80
2021/12/23 13:21:10;;;;;;;8.45;4.20;;;23.40;99.90;;;;;;5111711;28;20024;-82
2021/12/23 13:23:43;;;;;;;7.18;4.47;;;23.40;99.90;;;;;;5112088;28;20482;-79
2021/12/23 13:26:17;;;;;;;7.57;3.85;;;23.40;99.90;;;;;;5109420;28;20077;-80
2021/12/23 13:28:56;;;;;;;10.65;4.88;;;23.40;99.90;;;;;;5112270;28;20031;-78
2021/12/23 13:31:27;;;;;;;7.75;3.88;;;23.40;99.90;;;;;;5111371;28;20031;-79
2021/12/23 13:33:56;;;;;;;4.97;3.97;;;23.40;99.90;;;;;;5108175;28;20136;-78
2021/12/23 13:36:25;;;;;;;6.72;4.47;;;23.30;99.90;;;;;;5103878;28;22920;-81
2021/12/23 13:38:58;;;;;;;11.13;3.80;;;23.30;99.90;;;;;;5105867;28;20035;-75
2021/12/23 13:41:32;;;;;;;11.32;4.43;;;23.40;99.90;;;;;;5108686;28;20027;-83
2021/12/23 13:44:34;;;;;;;11.70;6.35;;;23.40;99.90;;;;;;5112133;28;20079;-78
2021/12/23 13:47:14;;;;;;;8.75;5.22;;;23.40;99.90;;;;;;5110239;28;20032;-80
2021/12/23 13:49:46;;;;;;;9.38;6.47;;;23.40;99.90;;;;;;5101302;28;20034;-82
2021/12/23 13:52:39;;;;;;;12.70;5.90;;;23.40;99.90;;;;;;5111202;28;20474;-79
2021/12/23 13:55:13;;;;;;;9.07;5.20;;;23.40;99.90;;;;;;5112019;28;20028;-79
2021/12/23 13:57:46;;;;;;;10.52;4.30;;;23.40;99.90;;;;;;5101789;28;20483;-82
2021/12/23 14:00:28;;;;;;;5.97;3.70;;;23.40;99.90;;;;;;5111163;28;20024;-83
2021/12/23 14:03:12;;;;;;;10.90;4.18;;;23.40;99.90;;;;;;5106698;28;20027;-80
2021/12/23 14:05:40;;;;;;;7.03;3.95;;;23.30;99.90;;;;;;5111722;28;20032;-83
2021/12/23 14:08:10;;;;;;;6.05;3.40;;;23.30;99.90;;;;;;5111970;28;20110;-81